createdAt,value
2017-05-14T00:00:39.229Z,13.28
2017-05-14T00:01:48.121Z,13.25
2017-05-14T00:02:57.016Z,13.33
2017-05-14T00:04:06.883Z,13.17
2017-05-14T00:05:16.100Z,13.2
2017-05-14T00:06:25.417Z,13.14
2017-05-14T00:07:34.698Z,13.19
2017-05-14T00:08:43.915Z,13.2
2017-05-14T00:09:53.457Z,13.19
2017-05-14T00:11:02.401Z,13.25
2017-05-14T00:12:11.343Z,13.11
2017-05-14T00:13:20.249Z,13.12
2017-05-14T00:14:29.514Z,13.11
2017-05-14T00:15:38.408Z,13.17
2017-05-14T00:16:47.626Z,13.15
2017-05-14T00:17:56.672Z,13.15
2017-05-14T00:19:05.887Z,13.11
2017-05-14T00:20:15.104Z,13.04
2017-05-14T00:21:24.007Z,13.05
2017-05-14T00:22:32.910Z,13.03
2017-05-14T00:23:42.226Z,13.05
2017-05-14T00:24:51.770Z,13.08
2017-05-14T00:26:01.313Z,13.03
2017-05-14T00:27:10.205Z,13.04
2017-05-14T00:28:19.125Z,12.97
2017-05-14T00:29:28.022Z,13
2017-05-14T00:30:37.240Z,12.95
2017-05-14T00:31:46.133Z,12.93
2017-05-14T00:32:55.031Z,12.96
2017-05-14T00:34:04.248Z,13
2017-05-14T00:35:13.621Z,12.96
2017-05-14T00:36:22.517Z,13.01
2017-05-14T00:37:31.737Z,13.03
2017-05-14T00:38:41.289Z,13.05
2017-05-14T00:39:50.506Z,13.03
2017-05-14T00:41:00.020Z,13.1
2017-05-14T00:42:08.961Z,13.07
2017-05-14T00:43:18.501Z,13.11
2017-05-14T00:44:27.722Z,13.2
2017-05-14T00:45:36.626Z,13.12
2017-05-14T00:46:45.671Z,13.14
2017-05-14T00:47:54.562Z,13.15
2017-05-14T00:49:03.455Z,13.15
2017-05-14T00:50:12.348Z,13.2
2017-05-14T00:51:21.568Z,13.2
2017-05-14T00:52:30.460Z,13.17
2017-05-14T00:53:40.014Z,13.14
2017-05-14T00:54:49.880Z,13.14
2017-05-14T00:55:59.139Z,13.29
2017-05-14T00:57:08.689Z,13.25
2017-05-14T00:58:17.678Z,13.29
2017-05-14T00:59:26.570Z,13.29
2017-05-14T01:00:36.109Z,13.38
2017-05-14T01:01:45.001Z,13.28
2017-05-14T01:02:53.892Z,13.2
2017-05-14T01:04:03.803Z,13.26
2017-05-14T01:05:12.698Z,13.26
2017-05-14T01:06:21.594Z,13.33
2017-05-14T01:07:31.142Z,13.32
2017-05-14T01:08:40.358Z,13.3
2017-05-14T01:09:49.905Z,13.26
2017-05-14T01:10:59.451Z,13.32
2017-05-14T01:12:08.998Z,13.32
2017-05-14T01:13:18.210Z,13.22
2017-05-14T01:14:27.757Z,13.26
2017-05-14T01:15:37.125Z,13.26
2017-05-14T01:16:46.018Z,13.26
2017-05-14T01:17:54.906Z,13.3
2017-05-14T01:19:04.449Z,13.25
2017-05-14T01:20:13.672Z,13.29
2017-05-14T01:21:22.812Z,13.32
2017-05-14T01:22:32.027Z,13.14
2017-05-14T01:23:41.570Z,13.3
2017-05-14T01:24:50.786Z,13.26
2017-05-14T01:26:00.004Z,13.17
2017-05-14T01:27:09.326Z,13.17
2017-05-14T01:28:18.219Z,13.19
2017-05-14T01:29:27.112Z,13.19
2017-05-14T01:30:36.985Z,13.17
2017-05-14T01:31:45.878Z,13.25
2017-05-14T01:32:55.524Z,13.2
2017-05-14T01:34:04.741Z,13.28
2017-05-14T01:35:14.285Z,13.25
2017-05-14T01:36:23.507Z,13.29
2017-05-14T01:37:32.756Z,13.17
2017-05-14T01:38:42.122Z,13.17
2017-05-14T01:39:51.337Z,13.2
2017-05-14T01:41:00.559Z,13.26
2017-05-14T01:42:09.453Z,13.14
2017-05-14T01:43:18.673Z,13.14
2017-05-14T01:44:27.946Z,13.03
2017-05-14T01:45:37.491Z,12.95
2017-05-14T01:46:46.715Z,12.9
2017-05-14T01:47:55.603Z,12.86
2017-05-14T01:49:04.819Z,12.96
2017-05-14T01:50:13.876Z,12.9
2017-05-14T01:51:22.767Z,12.86
2017-05-14T01:52:32.035Z,12.82
2017-05-14T01:53:41.581Z,12.87
2017-05-14T01:54:51.131Z,12.85
2017-05-14T01:56:00.836Z,12.93
2017-05-14T01:57:09.731Z,12.85
2017-05-14T01:58:19.601Z,12.92
2017-05-14T01:59:28.827Z,12.82
2017-05-14T02:00:38.369Z,12.78
2017-05-14T02:01:47.913Z,12.89
2017-05-14T02:02:57.127Z,12.83
2017-05-14T02:04:06.021Z,12.87
2017-05-14T02:05:14.926Z,12.89
2017-05-14T02:06:24.146Z,12.9
2017-05-14T02:07:33.938Z,12.9
2017-05-14T02:08:43.153Z,12.95
2017-05-14T02:09:52.374Z,12.85
2017-05-14T02:11:02.244Z,12.87
2017-05-14T02:12:11.136Z,12.86
2017-05-14T02:13:20.509Z,12.93
2017-05-14T02:14:29.406Z,12.93
2017-05-14T02:15:38.346Z,12.95
2017-05-14T02:16:47.573Z,12.9
2017-05-14T02:17:57.113Z,12.92
2017-05-14T02:19:06.810Z,12.9
2017-05-14T02:20:16.026Z,12.9
2017-05-14T02:21:24.918Z,12.89
2017-05-14T02:22:34.135Z,12.95
2017-05-14T02:23:43.353Z,12.89
2017-05-14T02:24:53.047Z,12.92
2017-05-14T02:26:01.942Z,12.96
2017-05-14T02:27:11.159Z,12.79
2017-05-14T02:28:20.699Z,12.82
2017-05-14T02:29:29.921Z,12.87
2017-05-14T02:30:39.938Z,12.85
2017-05-14T02:31:48.827Z,12.85
2017-05-14T02:32:57.721Z,12.86
2017-05-14T02:34:06.609Z,12.83
2017-05-14T02:35:15.500Z,12.83
2017-05-14T02:36:24.440Z,12.9
2017-05-14T02:37:33.658Z,12.92
2017-05-14T02:38:42.875Z,12.9
2017-05-14T02:39:52.095Z,12.87
2017-05-14T02:41:01.640Z,12.79
2017-05-14T02:42:11.058Z,12.75
2017-05-14T02:43:19.946Z,12.78
2017-05-14T02:44:28.840Z,12.82
2017-05-14T02:45:38.385Z,12.83
2017-05-14T02:46:47.281Z,12.77
2017-05-14T02:47:56.427Z,12.68
2017-05-14T02:49:05.640Z,12.77
2017-05-14T02:50:14.862Z,12.79
2017-05-14T02:51:23.755Z,12.78
2017-05-14T02:52:32.973Z,12.71
2017-05-14T02:53:42.188Z,12.67
2017-05-14T02:54:52.059Z,12.71
2017-05-14T02:56:01.932Z,12.82
2017-05-14T02:57:11.149Z,12.77
2017-05-14T02:58:20.365Z,12.67
2017-05-14T02:59:29.896Z,12.67
2017-05-14T03:00:39.439Z,12.77
2017-05-14T03:01:48.385Z,12.83
2017-05-14T03:02:57.928Z,12.83
2017-05-14T03:04:07.142Z,12.77
2017-05-14T03:05:16.464Z,12.77
2017-05-14T03:06:26.005Z,12.75
2017-05-14T03:07:34.906Z,12.77
2017-05-14T03:08:44.135Z,12.78
2017-05-14T03:09:53.352Z,12.79
2017-05-14T03:11:02.298Z,12.67
2017-05-14T03:12:11.517Z,12.7
2017-05-14T03:13:20.410Z,12.68
2017-05-14T03:14:29.646Z,12.71
2017-05-14T03:15:38.539Z,12.7
2017-05-14T03:16:47.485Z,12.71
2017-05-14T03:17:57.366Z,12.67
2017-05-14T03:19:06.911Z,12.59
2017-05-14T03:20:16.452Z,12.64
2017-05-14T03:21:25.994Z,12.52
2017-05-14T03:22:34.987Z,12.54
2017-05-14T03:23:44.533Z,12.59
2017-05-14T03:24:53.753Z,12.56
2017-05-14T03:26:02.698Z,12.6
2017-05-14T03:27:11.917Z,12.59
2017-05-14T03:28:21.290Z,12.54
2017-05-14T03:29:30.186Z,12.5
2017-05-14T03:30:39.731Z,12.5
2017-05-14T03:31:48.622Z,12.59
2017-05-14T03:32:57.848Z,12.53
2017-05-14T03:34:07.041Z,12.41
2017-05-14T03:35:16.259Z,12.5
2017-05-14T03:36:25.477Z,12.42
2017-05-14T03:37:34.366Z,12.45
2017-05-14T03:38:43.906Z,12.42
2017-05-14T03:39:52.945Z,12.46
2017-05-14T03:41:02.490Z,12.37
2017-05-14T03:42:11.709Z,12.41
2017-05-14T03:43:20.924Z,12.39
2017-05-14T03:44:30.794Z,12.38
2017-05-14T03:45:40.390Z,12.38
2017-05-14T03:46:49.606Z,12.35
2017-05-14T03:47:59.148Z,12.37
2017-05-14T03:49:08.037Z,12.41
2017-05-14T03:50:17.258Z,12.29
2017-05-14T03:51:26.783Z,12.35
2017-05-14T03:52:35.996Z,12.32
2017-05-14T03:53:44.893Z,12.32
2017-05-14T03:54:54.113Z,12.32
2017-05-14T03:56:03.328Z,12.24
2017-05-14T03:57:13.064Z,12.34
2017-05-14T03:58:22.606Z,12.28
2017-05-14T03:59:32.151Z,12.27
2017-05-14T04:00:41.051Z,12.17
2017-05-14T04:01:49.942Z,12.17
2017-05-14T04:02:59.687Z,12.17
2017-05-14T04:04:09.231Z,12.13
2017-05-14T04:05:18.133Z,12.14
2017-05-14T04:06:27.347Z,12.17
2017-05-14T04:07:36.891Z,12.23
2017-05-14T04:08:46.659Z,12.19
2017-05-14T04:09:56.203Z,12.14
2017-05-14T04:11:05.454Z,12.19
2017-05-14T04:12:14.680Z,12.27
2017-05-14T04:13:23.903Z,12.24
2017-05-14T04:14:33.320Z,12.2
2017-05-14T04:15:42.546Z,12.29
2017-05-14T04:16:51.442Z,12.28
2017-05-14T04:18:00.337Z,12.34
2017-05-14T04:19:09.884Z,12.35
2017-05-14T04:20:18.927Z,12.41
2017-05-14T04:21:27.818Z,12.42
2017-05-14T04:22:36.710Z,12.41
2017-05-14T04:23:46.253Z,12.42
2017-05-14T04:24:55.472Z,12.39
2017-05-14T04:26:04.842Z,12.53
2017-05-14T04:27:14.063Z,12.49
2017-05-14T04:28:23.285Z,12.39
2017-05-14T04:29:32.827Z,12.47
2017-05-14T04:30:41.723Z,12.47
2017-05-14T04:31:51.082Z,12.38
2017-05-14T04:33:00.295Z,12.45
2017-05-14T04:34:09.516Z,12.46
2017-05-14T04:35:18.740Z,12.35
2017-05-14T04:36:27.631Z,12.42
2017-05-14T04:37:36.675Z,12.38
2017-05-14T04:38:46.221Z,12.28
2017-05-14T04:39:55.444Z,12.29
2017-05-14T04:41:04.341Z,12.32
2017-05-14T04:42:13.566Z,12.28
2017-05-14T04:43:22.786Z,12.32
2017-05-14T04:44:31.676Z,12.32
2017-05-14T04:45:40.568Z,12.29
2017-05-14T04:46:49.784Z,12.23
2017-05-14T04:47:59.002Z,12.29
2017-05-14T04:49:08.370Z,12.31
2017-05-14T04:50:17.642Z,12.24
2017-05-14T04:51:26.582Z,12.23
2017-05-14T04:52:35.796Z,12.29
2017-05-14T04:53:44.691Z,12.24
2017-05-14T04:54:54.281Z,12.29
2017-05-14T04:56:03.500Z,12.19
2017-05-14T04:57:12.715Z,12.19
2017-05-14T04:58:21.931Z,12.17
2017-05-14T04:59:31.152Z,12.31
2017-05-14T05:00:40.545Z,12.19
2017-05-14T05:01:49.759Z,12.13
2017-05-14T05:02:59.308Z,12.16
2017-05-14T05:04:08.522Z,12.13
2017-05-14T05:05:17.414Z,12.17
2017-05-14T05:06:26.407Z,12.2
2017-05-14T05:07:35.303Z,12.2
2017-05-14T05:08:44.844Z,12.23
2017-05-14T05:09:54.728Z,12.17
2017-05-14T05:11:03.627Z,12.19
2017-05-14T05:12:12.522Z,12.14
2017-05-14T05:13:22.061Z,12.27
2017-05-14T05:14:31.602Z,12.23
2017-05-14T05:15:40.502Z,12.16
2017-05-14T05:16:49.719Z,12.16
2017-05-14T05:17:58.761Z,12.14
2017-05-14T05:19:08.629Z,12.27
2017-05-14T05:20:17.848Z,12.23
2017-05-14T05:21:27.387Z,12.24
2017-05-14T05:22:36.617Z,12.29
2017-05-14T05:23:46.139Z,12.29
2017-05-14T05:24:55.685Z,12.23
2017-05-14T05:26:04.904Z,12.34
2017-05-14T05:27:14.124Z,12.39
2017-05-14T05:28:23.020Z,12.35
2017-05-14T05:29:32.268Z,12.41
2017-05-14T05:30:41.162Z,12.42
2017-05-14T05:31:50.064Z,12.41
2017-05-14T05:32:59.283Z,12.52
2017-05-14T05:34:08.178Z,12.47
2017-05-14T05:35:17.551Z,12.52
2017-05-14T05:36:26.770Z,12.5
2017-05-14T05:37:35.664Z,12.45
2017-05-14T05:38:44.554Z,12.56
2017-05-14T05:39:53.454Z,12.5
2017-05-14T05:41:02.724Z,12.56
2017-05-14T05:42:11.617Z,12.52
2017-05-14T05:43:20.509Z,12.57
2017-05-14T05:44:30.052Z,12.56
2017-05-14T05:45:39.595Z,12.67
2017-05-14T05:46:48.491Z,12.62
2017-05-14T05:47:57.714Z,12.7
2017-05-14T05:49:06.930Z,12.68
2017-05-14T05:50:15.819Z,12.75
2017-05-14T05:51:24.710Z,12.83
2017-05-14T05:52:34.077Z,12.82
2017-05-14T05:53:43.299Z,12.78
2017-05-14T05:54:52.519Z,12.78
2017-05-14T05:56:01.416Z,12.86
2017-05-14T05:57:10.686Z,12.82
2017-05-14T05:58:19.632Z,12.92
2017-05-14T05:59:28.848Z,12.89
2017-05-14T06:00:37.746Z,12.9
2017-05-14T06:01:46.963Z,12.89
2017-05-14T06:02:55.905Z,12.92
2017-05-14T06:04:05.215Z,13.01
2017-05-14T06:05:14.761Z,13.03
2017-05-14T06:06:23.655Z,13.01
2017-05-14T06:07:32.554Z,13.01
2017-05-14T06:08:41.448Z,13.08
2017-05-14T06:09:50.767Z,13.1
2017-05-14T06:11:00.322Z,13.19
2017-05-14T06:12:09.546Z,13.29
2017-05-14T06:13:18.481Z,13.23
2017-05-14T06:14:27.696Z,13.3
2017-05-14T06:15:36.961Z,13.26
2017-05-14T06:16:46.174Z,13.25
2017-05-14T06:17:55.065Z,13.33
2017-05-14T06:19:04.286Z,13.45
2017-05-14T06:20:13.503Z,13.46
2017-05-14T06:21:22.652Z,13.54
2017-05-14T06:22:32.200Z,13.44
2017-05-14T06:23:41.140Z,13.3
2017-05-14T06:24:50.368Z,13.49
2017-05-14T06:25:59.580Z,13.51
2017-05-14T06:27:08.523Z,13.57
2017-05-14T06:28:17.789Z,13.63
2017-05-14T06:29:27.006Z,13.6
2017-05-14T06:30:35.899Z,13.63
2017-05-14T06:31:44.793Z,13.6
2017-05-14T06:32:53.838Z,13.67
2017-05-14T06:34:03.383Z,13.73
2017-05-14T06:35:12.286Z,13.73
2017-05-14T06:36:21.176Z,13.77
2017-05-14T06:37:30.071Z,13.73
2017-05-14T06:38:39.010Z,13.79
2017-05-14T06:39:47.906Z,13.78
2017-05-14T06:40:56.798Z,13.84
2017-05-14T06:42:06.015Z,13.87
2017-05-14T06:43:14.906Z,14
2017-05-14T06:44:24.103Z,13.95
2017-05-14T06:45:32.998Z,13.97
2017-05-14T06:46:41.894Z,13.89
2017-05-14T06:47:50.787Z,13.85
2017-05-14T06:48:59.677Z,13.92
2017-05-14T06:50:08.619Z,13.92
2017-05-14T06:51:17.839Z,14.03
2017-05-14T06:52:26.734Z,14.04
2017-05-14T06:53:35.949Z,14.06
2017-05-14T06:54:45.166Z,14.09
2017-05-14T06:55:54.483Z,14.12
2017-05-14T06:57:03.382Z,14.15
2017-05-14T06:58:12.321Z,13.99
2017-05-14T06:59:21.543Z,14.12
2017-05-14T07:00:30.763Z,14.33
2017-05-14T07:01:39.805Z,14.22
2017-05-14T07:02:48.693Z,14.2
2017-05-14T07:03:57.587Z,14.14
2017-05-14T07:05:06.807Z,14.24
2017-05-14T07:06:16.022Z,14.29
2017-05-14T07:07:24.973Z,14.36
2017-05-14T07:08:34.198Z,14.4
2017-05-14T07:09:43.416Z,14.42
2017-05-14T07:10:52.317Z,14.58
2017-05-14T07:12:01.211Z,14.61
2017-05-14T07:13:11.104Z,14.78
2017-05-14T07:14:19.998Z,14.77
2017-05-14T07:15:29.214Z,14.68
2017-05-14T07:16:38.754Z,14.64
2017-05-14T07:17:47.648Z,14.73
2017-05-14T07:18:56.541Z,14.77
2017-05-14T07:20:05.440Z,14.73
2017-05-14T07:21:14.334Z,14.77
2017-05-14T07:22:23.225Z,14.75
2017-05-14T07:23:32.125Z,14.69
2017-05-14T07:24:41.394Z,14.8
2017-05-14T07:25:50.285Z,14.89
2017-05-14T07:26:59.179Z,15.03
2017-05-14T07:28:08.399Z,15.07
2017-05-14T07:29:17.285Z,14.99
2017-05-14T07:30:26.556Z,15.14
2017-05-14T07:31:35.451Z,15.14
2017-05-14T07:32:44.343Z,15.23
2017-05-14T07:33:53.240Z,15.25
2017-05-14T07:35:02.138Z,15.23
2017-05-14T07:36:11.835Z,15.27
2017-05-14T07:37:20.733Z,15.27
2017-05-14T07:38:29.633Z,15.25
2017-05-14T07:39:38.528Z,15.29
2017-05-14T07:40:47.745Z,15.25
2017-05-14T07:41:56.693Z,15.29
2017-05-14T07:43:05.585Z,15.36
2017-05-14T07:44:14.477Z,15.44
2017-05-14T07:45:23.374Z,15.56
2017-05-14T07:46:32.590Z,15.62
2017-05-14T07:47:42.280Z,15.54
2017-05-14T07:48:51.176Z,15.64
2017-05-14T07:50:00.077Z,15.53
2017-05-14T07:51:09.305Z,15.59
2017-05-14T07:52:18.250Z,15.83
2017-05-14T07:53:27.623Z,15.76
2017-05-14T07:54:36.528Z,15.76
2017-05-14T07:55:45.743Z,15.78
2017-05-14T07:56:54.636Z,15.71
2017-05-14T07:58:03.533Z,15.67
2017-05-14T07:59:12.477Z,15.84
2017-05-14T08:00:21.368Z,15.78
2017-05-14T08:01:30.909Z,15.89
2017-05-14T08:02:40.125Z,15.89
2017-05-14T08:03:49.024Z,16.01
2017-05-14T08:04:58.083Z,15.97
2017-05-14T08:06:07.361Z,16.02
2017-05-14T08:07:16.264Z,16.04
2017-05-14T08:08:25.487Z,16.08
2017-05-14T08:09:34.381Z,16.23
2017-05-14T08:10:43.423Z,16.12
2017-05-14T08:11:52.324Z,16.14
2017-05-14T08:13:01.871Z,16.11
2017-05-14T08:14:10.774Z,16.21
2017-05-14T08:15:19.673Z,16.27
2017-05-14T08:16:29.391Z,16.34
2017-05-14T08:17:38.289Z,16.3
2017-05-14T08:18:47.183Z,16.27
2017-05-14T08:19:56.437Z,16.46
2017-05-14T08:21:05.332Z,16.5
2017-05-14T08:22:14.601Z,16.48
2017-05-14T08:23:23.498Z,16.63
2017-05-14T08:24:32.398Z,16.66
2017-05-14T08:25:41.625Z,16.52
2017-05-14T08:26:50.846Z,16.66
2017-05-14T08:28:00.769Z,16.71
2017-05-14T08:29:09.727Z,16.79
2017-05-14T08:30:18.627Z,16.75
2017-05-14T08:31:27.845Z,16.78
2017-05-14T08:32:36.740Z,16.85
2017-05-14T08:33:45.741Z,16.86
2017-05-14T08:34:54.966Z,16.82
2017-05-14T08:36:03.861Z,16.86
2017-05-14T08:37:13.089Z,16.89
2017-05-14T08:38:21.983Z,16.88
2017-05-14T08:39:31.502Z,16.94
2017-05-14T08:40:40.445Z,16.91
2017-05-14T08:41:49.342Z,16.93
2017-05-14T08:42:58.561Z,16.96
2017-05-14T08:44:07.465Z,16.97
2017-05-14T08:45:16.507Z,17.12
2017-05-14T08:46:25.743Z,17.11
2017-05-14T08:47:34.636Z,17
2017-05-14T08:48:43.534Z,17
2017-05-14T08:49:52.751Z,17.07
2017-05-14T08:51:01.971Z,17.01
2017-05-14T08:52:11.241Z,17.06
2017-05-14T08:53:20.469Z,17.04
2017-05-14T08:54:29.360Z,17.15
2017-05-14T08:55:38.262Z,17.21
2017-05-14T08:56:47.305Z,17.19
2017-05-14T08:57:56.523Z,17.25
2017-05-14T08:59:05.427Z,17.36
2017-05-14T09:00:14.322Z,17.33
2017-05-14T09:01:23.223Z,17.46
2017-05-14T09:02:32.464Z,17.43
2017-05-14T09:03:41.355Z,17.43
2017-05-14T09:04:50.259Z,17.51
2017-05-14T09:05:59.477Z,17.48
2017-05-14T09:07:08.370Z,17.63
2017-05-14T09:08:17.420Z,17.66
2017-05-14T09:09:26.355Z,17.63
2017-05-14T09:10:35.905Z,17.55
2017-05-14T09:11:44.800Z,17.58
2017-05-14T09:12:53.748Z,17.64
2017-05-14T09:14:03.371Z,17.64
2017-05-14T09:15:12.589Z,17.68
2017-05-14T09:16:21.810Z,17.64
2017-05-14T09:17:30.705Z,17.89
2017-05-14T09:18:39.600Z,17.86
2017-05-14T09:19:48.648Z,17.86
2017-05-14T09:20:57.539Z,17.95
2017-05-14T09:22:07.087Z,17.96
2017-05-14T09:23:15.982Z,18.02
2017-05-14T09:24:25.203Z,17.99
2017-05-14T09:25:34.094Z,17.96
2017-05-14T09:26:43.008Z,18.07
2017-05-14T09:27:52.235Z,18.03
2017-05-14T09:29:01.129Z,18.11
2017-05-14T09:30:10.023Z,18.12
2017-05-14T09:31:18.969Z,18.26
2017-05-14T09:32:27.910Z,18.27
2017-05-14T09:33:36.807Z,18.32
2017-05-14T09:34:45.703Z,18.21
2017-05-14T09:35:55.256Z,18.11
2017-05-14T09:37:04.953Z,18.17
2017-05-14T09:38:13.850Z,18.11
2017-05-14T09:39:22.744Z,18.14
2017-05-14T09:40:31.644Z,18.23
2017-05-14T09:41:40.543Z,18.17
2017-05-14T09:42:49.595Z,18.21
2017-05-14T09:43:58.826Z,18.32
2017-05-14T09:45:07.730Z,18.33
2017-05-14T09:46:16.625Z,18.32
2017-05-14T09:47:25.522Z,18.15
2017-05-14T09:48:34.572Z,18.15
2017-05-14T09:49:43.465Z,18.26
2017-05-14T09:50:52.360Z,18.29
2017-05-14T09:52:01.578Z,18.41
2017-05-14T09:53:10.480Z,18.5
2017-05-14T09:54:19.525Z,18.51
2017-05-14T09:55:28.469Z,18.54
2017-05-14T09:56:37.360Z,18.54
2017-05-14T09:57:46.365Z,18.54
2017-05-14T09:58:55.582Z,18.54
2017-05-14T10:00:05.120Z,18.69
2017-05-14T10:01:14.348Z,18.58
2017-05-14T10:02:23.253Z,18.58
2017-05-14T10:03:32.161Z,18.69
2017-05-14T10:04:41.074Z,18.51
2017-05-14T10:05:49.971Z,18.6
2017-05-14T10:06:59.196Z,18.72
2017-05-14T10:08:08.416Z,18.76
2017-05-14T10:09:17.317Z,18.98
2017-05-14T10:10:26.214Z,18.88
2017-05-14T10:11:35.113Z,18.81
2017-05-14T10:12:44.015Z,18.95
2017-05-14T10:13:52.914Z,18.98
2017-05-14T10:15:02.144Z,19.1
2017-05-14T10:16:11.044Z,19.19
2017-05-14T10:17:19.943Z,19.21
2017-05-14T10:18:28.846Z,19.4
2017-05-14T10:19:38.067Z,19.37
2017-05-14T10:20:47.285Z,19.33
2017-05-14T10:21:56.180Z,19.29
2017-05-14T10:23:05.400Z,19.29
2017-05-14T10:24:14.295Z,19.31
2017-05-14T10:25:23.192Z,19.16
2017-05-14T10:26:32.413Z,19.33
2017-05-14T10:27:41.635Z,19.29
2017-05-14T10:28:50.531Z,19.44
2017-05-14T10:29:59.433Z,19.43
2017-05-14T10:31:08.708Z,19.61
2017-05-14T10:32:17.606Z,19.59
2017-05-14T10:33:26.832Z,19.69
2017-05-14T10:34:36.056Z,19.69
2017-05-14T10:35:44.957Z,19.55
2017-05-14T10:36:54.429Z,19.59
2017-05-14T10:38:03.328Z,19.56
2017-05-14T10:39:12.226Z,19.59
2017-05-14T10:40:21.120Z,19.63
2017-05-14T10:41:30.667Z,19.78
2017-05-14T10:42:40.097Z,19.8
2017-05-14T10:43:49.321Z,19.94
2017-05-14T10:44:58.218Z,19.92
2017-05-14T10:46:07.114Z,19.81
2017-05-14T10:47:16.342Z,19.77
2017-05-14T10:48:25.540Z,19.77
2017-05-14T10:49:34.455Z,19.88
2017-05-14T10:50:43.351Z,19.88
2017-05-14T10:51:52.580Z,20.2
2017-05-14T10:53:01.486Z,20.23
2017-05-14T10:54:10.873Z,20.13
2017-05-14T10:55:20.098Z,20.05
2017-05-14T10:56:29.322Z,19.99
2017-05-14T10:57:38.542Z,20.05
2017-05-14T10:58:47.766Z,19.99
2017-05-14T10:59:56.827Z,20.05
2017-05-14T11:01:05.730Z,20.1
2017-05-14T11:02:14.628Z,20.21
2017-05-14T11:03:23.528Z,20.35
2017-05-14T11:04:32.429Z,20.35
2017-05-14T11:05:41.526Z,20.5
2017-05-14T11:06:50.426Z,20.48
2017-05-14T11:07:59.326Z,20.31
2017-05-14T11:09:08.230Z,20.36
2017-05-14T11:10:17.130Z,20.29
2017-05-14T11:11:26.131Z,20.32
2017-05-14T11:12:35.077Z,20.33
2017-05-14T11:13:44.625Z,20.35
2017-05-14T11:14:53.847Z,20.28
2017-05-14T11:16:02.746Z,20.39
2017-05-14T11:17:12.019Z,20.47
2017-05-14T11:18:21.243Z,20.57
2017-05-14T11:19:30.142Z,20.64
2017-05-14T11:20:39.096Z,20.79
2017-05-14T11:21:48.001Z,20.85
2017-05-14T11:22:57.433Z,20.99
2017-05-14T11:24:06.341Z,20.92
2017-05-14T11:25:15.565Z,20.95
2017-05-14T11:26:24.465Z,20.92
2017-05-14T11:27:34.018Z,20.85
2017-05-14T11:28:43.441Z,20.85
2017-05-14T11:29:52.340Z,20.82
2017-05-14T11:31:01.563Z,20.94
2017-05-14T11:32:10.473Z,21.09
2017-05-14T11:33:19.371Z,21.06
2017-05-14T11:34:28.525Z,21.03
2017-05-14T11:35:37.423Z,21.21
2017-05-14T11:36:46.326Z,21.44
2017-05-14T11:37:55.283Z,21.65
2017-05-14T11:39:05.166Z,21.65
2017-05-14T11:40:14.699Z,21.65
2017-05-14T11:41:23.931Z,21.62
2017-05-14T11:42:33.211Z,21.59
2017-05-14T11:43:42.763Z,21.69
2017-05-14T11:44:51.671Z,21.65
2017-05-14T11:46:00.674Z,21.75
2017-05-14T11:47:09.574Z,21.88
2017-05-14T11:48:18.480Z,21.86
2017-05-14T11:49:28.037Z,22.07
2017-05-14T11:50:37.588Z,21.92
2017-05-14T11:51:46.639Z,21.92
2017-05-14T11:52:55.540Z,21.98
2017-05-14T11:54:04.440Z,21.83
2017-05-14T11:55:13.342Z,21.75
2017-05-14T11:56:22.242Z,21.79
2017-05-14T11:57:31.190Z,21.94
2017-05-14T11:58:40.094Z,22.14
2017-05-14T11:59:48.998Z,22.27
2017-05-14T12:00:57.906Z,22.47
2017-05-14T12:02:06.815Z,22.42
2017-05-14T12:03:16.118Z,22.3
2017-05-14T12:04:25.351Z,22.39
2017-05-14T12:05:34.582Z,22.43
2017-05-14T12:06:44.145Z,22.55
2017-05-14T12:07:53.051Z,22.58
2017-05-14T12:09:02.107Z,22.46
2017-05-14T12:10:11.013Z,22.47
2017-05-14T12:11:19.922Z,22.54
2017-05-14T12:12:28.831Z,22.3
2017-05-14T12:13:38.058Z,22.22
2017-05-14T12:14:47.337Z,22.28
2017-05-14T12:15:56.244Z,22.4
2017-05-14T12:17:05.150Z,22.46
2017-05-14T12:18:14.061Z,22.55
2017-05-14T12:19:23.290Z,22.6
2017-05-14T12:20:32.816Z,22.46
2017-05-14T12:21:41.724Z,22.39
2017-05-14T12:22:50.626Z,22.3
2017-05-14T12:24:00.181Z,22.49
2017-05-14T12:25:09.082Z,22.67
2017-05-14T12:26:18.470Z,22.82
2017-05-14T12:27:27.384Z,22.9
2017-05-14T12:28:36.612Z,22.73
2017-05-14T12:29:45.904Z,22.67
2017-05-14T12:30:54.855Z,22.72
2017-05-14T12:32:04.489Z,22.76
2017-05-14T12:33:14.048Z,22.86
2017-05-14T12:34:23.274Z,22.77
2017-05-14T12:35:32.836Z,22.79
2017-05-14T12:36:41.757Z,22.72
2017-05-14T12:37:51.177Z,22.67
2017-05-14T12:39:00.127Z,22.61
2017-05-14T12:40:09.029Z,22.67
2017-05-14T12:41:17.942Z,22.77
2017-05-14T12:42:27.177Z,22.86
2017-05-14T12:43:36.609Z,22.94
2017-05-14T12:44:45.555Z,23.13
2017-05-14T12:45:54.493Z,23.2
2017-05-14T12:47:03.875Z,23.1
2017-05-14T12:48:12.851Z,23.12
2017-05-14T12:49:21.764Z,23.13
2017-05-14T12:50:30.994Z,23.32
2017-05-14T12:51:39.902Z,23.46
2017-05-14T12:52:49.133Z,23.5
2017-05-14T12:53:58.044Z,23.31
2017-05-14T12:55:07.023Z,23.23
2017-05-14T12:56:16.582Z,23.27
2017-05-14T12:57:25.486Z,23.16
2017-05-14T12:58:34.389Z,23.04
2017-05-14T12:59:43.343Z,23.07
2017-05-14T13:00:52.398Z,23.05
2017-05-14T13:02:01.637Z,23.12
2017-05-14T13:03:10.867Z,23.19
2017-05-14T13:04:19.782Z,23.23
2017-05-14T13:05:29.011Z,23.2
2017-05-14T13:06:38.394Z,23.32
2017-05-14T13:07:47.300Z,23.38
2017-05-14T13:08:56.209Z,23.48
2017-05-14T13:10:05.440Z,23.48
2017-05-14T13:11:14.672Z,23.5
2017-05-14T13:12:23.628Z,23.54
2017-05-14T13:13:32.535Z,23.63
2017-05-14T13:14:41.446Z,23.72
2017-05-14T13:15:50.675Z,23.84
2017-05-14T13:16:59.591Z,23.91
2017-05-14T13:18:09.625Z,24.1
2017-05-14T13:19:18.533Z,24.2
2017-05-14T13:20:28.151Z,24.37
2017-05-14T13:21:37.710Z,24.47
2017-05-14T13:22:47.281Z,24.77
2017-05-14T13:23:56.339Z,24.8
2017-05-14T13:25:05.249Z,24.83
2017-05-14T13:26:14.159Z,24.78
2017-05-14T13:27:23.084Z,24.73
2017-05-14T13:28:32.322Z,24.77
2017-05-14T13:29:41.286Z,24.78
2017-05-14T13:30:50.200Z,24.77
2017-05-14T13:31:59.109Z,24.78
2017-05-14T13:33:08.030Z,24.83
2017-05-14T13:34:17.275Z,24.62
2017-05-14T13:35:26.533Z,24.55
2017-05-14T13:36:35.445Z,24.69
2017-05-14T13:37:44.687Z,24.81
2017-05-14T13:38:53.596Z,24.84
2017-05-14T13:40:02.515Z,24.87
2017-05-14T13:41:11.574Z,25.1
2017-05-14T13:42:20.492Z,25.17
2017-05-14T13:43:29.726Z,25.3
2017-05-14T13:44:38.965Z,25.38
2017-05-14T13:45:47.886Z,25.43
2017-05-14T13:46:57.097Z,25.39
2017-05-14T13:48:06.335Z,25.43
2017-05-14T13:49:15.248Z,25.3
2017-05-14T13:50:24.168Z,25.45
2017-05-14T13:51:33.089Z,25.54
2017-05-14T13:52:42.110Z,25.52
2017-05-14T13:53:51.029Z,25.64
2017-05-14T13:55:00.270Z,25.5
2017-05-14T13:56:09.190Z,25.55
2017-05-14T13:57:18.483Z,25.61
2017-05-14T13:58:27.988Z,25.79
2017-05-14T13:59:37.553Z,26.12
2017-05-14T14:00:46.797Z,26.28
2017-05-14T14:01:55.710Z,26.3
2017-05-14T14:03:04.637Z,26.15
2017-05-14T14:04:13.704Z,26.17
2017-05-14T14:05:22.619Z,25.75
2017-05-14T14:06:31.857Z,25.46
2017-05-14T14:07:40.774Z,25.4
2017-05-14T14:08:49.690Z,25.1
2017-05-14T14:09:58.653Z,25.17
2017-05-14T14:11:07.891Z,25.36
2017-05-14T14:12:16.808Z,25.69
2017-05-14T14:13:25.721Z,25.9
2017-05-14T14:14:34.635Z,26.01
2017-05-14T14:15:43.599Z,26.13
2017-05-14T14:16:52.512Z,26.1
2017-05-14T14:18:01.751Z,26.15
2017-05-14T14:19:10.991Z,26.2
2017-05-14T14:20:20.224Z,26.15
2017-05-14T14:21:29.248Z,26.36
2017-05-14T14:22:38.492Z,26.62
2017-05-14T14:23:47.460Z,26.92
2017-05-14T14:24:56.702Z,26.99
2017-05-14T14:26:05.660Z,26.91
2017-05-14T14:27:14.900Z,26.77
2017-05-14T14:28:23.818Z,26.62
2017-05-14T14:29:32.731Z,26.58
2017-05-14T14:30:41.971Z,26.76
2017-05-14T14:31:50.896Z,26.26
2017-05-14T14:32:59.965Z,26.35
2017-05-14T14:34:08.882Z,26.28
2017-05-14T14:35:17.799Z,26.44
2017-05-14T14:36:27.367Z,26.8
2017-05-14T14:37:36.607Z,26.94
2017-05-14T14:38:45.722Z,26.88
2017-05-14T14:39:55.290Z,27
2017-05-14T14:41:04.216Z,26.85
2017-05-14T14:42:13.138Z,26.97
2017-05-14T14:43:22.109Z,26.99
2017-05-14T14:44:31.673Z,27.14
2017-05-14T14:45:40.635Z,26.92
2017-05-14T14:46:49.552Z,26.97
2017-05-14T14:47:58.470Z,27
2017-05-14T14:49:07.386Z,27.22
2017-05-14T14:50:16.683Z,27.51
2017-05-14T14:51:25.971Z,27.78
2017-05-14T14:52:35.216Z,27.67
2017-05-14T14:53:44.138Z,27.46